Time;durP1;ratioP1;P1;durP2;ratioP2;P2;SDS_P1;SDS_P2;PMS_P1;PMS_P2;Temp;Humidity;BMP_temperature;BMP_pressure;BME280_temperature;BME280_humidity;BME280_pressure;Samples;Min_cycle;Max_cycle;Signal;HPM_P1;HPM_P2
2022/10/14 00:01:08;;;;;;;34.97;21.65;;;14.90;99.90;;;;;;5033018;28;20079;-87
2022/10/14 00:03:34;;;;;;;35.67;22.48;;;14.90;99.90;;;;;;5029403;28;20034;-85
2022/10/14 00:06:04;;;;;;;36.67;22.38;;;14.90;99.90;;;;;;5025672;28;20029;-83
2022/10/14 00:08:30;;;;;;;34.63;21.27;;;14.90;99.90;;;;;;5027360;28;20025;-86
2022/10/14 00:10:55;;;;;;;36.33;21.23;;;15.00;99.90;;;;;;5034367;28;20536;-82
2022/10/14 00:13:21;;;;;;;31.40;19.92;;;14.90;99.90;;;;;;5035644;28;20048;-84
2022/10/14 00:15:47;;;;;;;36.30;21.33;;;15.00;99.90;;;;;;5038901;28;20033;-88
2022/10/14 00:18:12;;;;;;;38.20;21.48;;;14.90;99.90;;;;;;5039688;28;20029;-86
2022/10/14 00:20:38;;;;;;;38.10;21.40;;;14.90;99.90;;;;;;5024850;28;20047;-86
2022/10/14 00:23:04;;;;;;;35.78;21.77;;;14.70;99.90;;;;;;5035180;28;20351;-85
2022/10/14 00:25:30;;;;;;;41.50;22.38;;;14.70;99.90;;;;;;5027575;28;20025;-88
2022/10/14 00:27:55;;;;;;;35.47;21.42;;;14.70;99.90;;;;;;5025633;28;20111;-86
2022/10/14 00:30:21;;;;;;;41.88;21.55;;;14.60;99.90;;;;;;5034072;28;20025;-89
2022/10/14 00:32:49;;;;;;;37.90;22.10;;;14.60;99.90;;;;;;5033067;28;20028;-84
2022/10/14 00:35:15;;;;;;;40.63;21.40;;;14.60;99.90;;;;;;5033918;28;20118;-83
2022/10/14 00:37:40;;;;;;;38.30;22.30;;;14.60;99.90;;;;;;5044836;28;20072;-84
2022/10/14 00:40:09;;;;;;;42.50;22.77;;;14.70;99.90;;;;;;5042605;28;20412;-82
2022/10/14 00:42:35;;;;;;;35.17;21.30;;;14.70;99.90;;;;;;5043862;28;20823;-87
2022/10/14 00:45:05;;;;;;;44.08;22.42;;;14.60;99.90;;;;;;5038813;28;20051;-85
2022/10/14 00:47:33;;;;;;;35.35;21.90;;;14.60;99.90;;;;;;5033233;28;20025;-86
2022/10/14 00:49:59;;;;;;;41.90;20.95;;;14.60;99.90;;;;;;5033077;28;20028;-84
2022/10/14 00:52:25;;;;;;;35.33;21.80;;;14.50;99.90;;;;;;5024723;28;20434;-87
2022/10/14 00:55:02;;;;;;;42.75;21.90;;;14.50;99.90;;;;;;5028106;28;20033;-84
2022/10/14 00:57:30;;;;;;;37.28;20.48;;;14.50;99.90;;;;;;5033689;28;20030;-86
2022/10/14 01:00:04;;;;;;;38.50;21.65;;;14.50;99.90;;;;;;5036305;28;20026;-85
2022/10/14 01:02:30;;;;;;;40.35;20.25;;;14.50;99.90;;;;;;5019576;28;20030;-84
2022/10/14 01:04:56;;;;;;;37.20;19.70;;;14.50;99.90;;;;;;5040538;28;20037;-84
2022/10/14 01:07:35;;;;;;;38.70;20.95;;;14.50;99.90;;;;;;5037033;28;20033;-81
2022/10/14 01:10:19;;;;;;;39.80;20.27;;;14.60;99.90;;;;;;5036657;28;20073;-86
2022/10/14 01:12:51;;;;;;;37.58;21.23;;;14.60;99.90;;;;;;5032470;28;20443;-86
2022/10/14 01:15:19;;;;;;;34.80;19.58;;;14.50;99.90;;;;;;5025752;28;20375;-83
2022/10/14 01:18:07;;;;;;;35.08;19.95;;;14.50;99.90;;;;;;5029234;28;20388;-86
2022/10/14 01:20:33;;;;;;;39.78;19.45;;;14.40;99.90;;;;;;5025144;28;20048;-82
2022/10/14 01:23:27;;;;;;;34.10;19.48;;;14.40;99.90;;;;;;5025254;28;20018;-86
2022/10/14 01:25:55;;;;;;;42.47;19.10;;;14.40;99.90;;;;;;5041977;28;20025;-85
2022/10/14 01:28:44;;;;;;;35.05;18.45;;;14.40;99.90;;;;;;5041426;28;20728;-85
2022/10/14 01:31:17;;;;;;;32.53;18.42;;;14.40;99.90;;;;;;5038838;28;20132;-85
2022/10/14 01:33:45;;;;;;;36.13;17.83;;;14.40;99.90;;;;;;5036014;28;20056;-86
2022/10/14 01:36:36;;;;;;;29.83;18.27;;;14.40;99.90;;;;;;5037516;28;20037;-87
2022/10/14 01:39:17;;;;;;;29.27;17.27;;;14.40;99.90;;;;;;5031269;28;20033;-87
2022/10/14 01:41:53;;;;;;;33.42;18.02;;;14.40;99.90;;;;;;5026073;28;20118;-86
2022/10/14 01:44:22;;;;;;;30.88;17.15;;;14.50;99.90;;;;;;5033661;28;20026;-85
2022/10/14 01:46:52;;;;;;;30.92;17.27;;;14.50;99.90;;;;;;5037422;28;20032;-84
2022/10/14 01:49:43;;;;;;;33.92;16.88;;;14.50;99.90;;;;;;5031977;28;20029;-85
2022/10/14 01:52:18;;;;;;;27.38;16.65;;;14.60;99.90;;;;;;5042393;28;20053;-83
2022/10/14 01:54:50;;;;;;;27.92;17.48;;;14.60;99.90;;;;;;5033584;28;20067;-85
2022/10/14 01:57:21;;;;;;;28.10;16.02;;;14.60;99.90;;;;;;5035248;28;20026;-85
2022/10/14 01:59:48;;;;;;;28.05;16.00;;;14.60;99.90;;;;;;5035198;28;20053;-87
2022/10/14 02:02:14;;;;;;;27.35;15.35;;;14.70;99.90;;;;;;5031538;28;20037;-86
2022/10/14 02:04:39;;;;;;;29.20;15.63;;;14.70;99.90;;;;;;5037397;28;20035;-86
2022/10/14 02:07:16;;;;;;;31.58;16.58;;;14.60;99.90;;;;;;5031967;28;20124;-87
2022/10/14 02:09:57;;;;;;;27.55;16.48;;;14.60;99.90;;;;;;5027459;28;20040;-85
2022/10/14 02:12:35;;;;;;;28.27;16.15;;;14.70;99.90;;;;;;5029695;28;20022;-85
2022/10/14 02:15:09;;;;;;;30.15;15.52;;;14.70;99.90;;;;;;5025666;28;20033;-87
2022/10/14 02:17:56;;;;;;;28.00;15.73;;;14.70;99.90;;;;;;5035863;28;20021;-88
2022/10/14 02:20:27;;;;;;;24.45;15.43;;;14.70;99.90;;;;;;5033955;28;20029;-83
2022/10/14 02:23:04;;;;;;;26.70;15.38;;;14.70;99.90;;;;;;5027143;28;20482;-87
2022/10/14 02:25:37;;;;;;;26.92;15.52;;;14.70;99.90;;;;;;5023966;28;20025;-85
2022/10/14 02:28:07;;;;;;;27.13;15.35;;;14.70;99.90;;;;;;5026912;28;20040;-84
2022/10/14 02:30:39;;;;;;;34.90;16.17;;;14.70;99.90;;;;;;5025398;28;20509;-86
2022/10/14 02:33:06;;;;;;;22.13;14.13;;;14.70;99.90;;;;;;5029584;28;20109;-85
2022/10/14 02:35:34;;;;;;;33.95;15.75;;;14.70;99.90;;;;;;5029960;28;20038;-85
2022/10/14 02:38:03;;;;;;;27.25;15.27;;;14.70;99.90;;;;;;5037961;28;20025;-86
2022/10/14 02:40:36;;;;;;;25.90;15.07;;;14.70;99.90;;;;;;5033769;28;20017;-81
2022/10/14 02:43:01;;;;;;;28.50;15.70;;;14.70;99.90;;;;;;5032705;28;20100;-83
2022/10/14 02:45:28;;;;;;;29.27;16.52;;;14.60;99.90;;;;;;5034377;28;20821;-86
2022/10/14 02:47:53;;;;;;;29.55;15.68;;;14.70;99.90;;;;;;5036363;28;20033;-84
2022/10/14 02:50:22;;;;;;;31.05;16.65;;;14.60;99.90;;;;;;5031523;28;20026;-82
2022/10/14 02:52:48;;;;;;;33.88;16.85;;;14.70;99.90;;;;;;5031122;28;20522;-85
2022/10/14 02:55:13;;;;;;;29.40;17.75;;;14.70;99.90;;;;;;5029209;28;20087;-84
2022/10/14 02:57:39;;;;;;;27.85;16.65;;;14.70;99.90;;;;;;5032943;28;20017;-86
2022/10/14 03:00:05;;;;;;;28.63;16.77;;;14.70;99.90;;;;;;5031666;28;20029;-87
2022/10/14 03:02:31;;;;;;;32.50;18.08;;;14.70;99.90;;;;;;5022556;28;20470;-85
2022/10/14 03:04:57;;;;;;;31.38;17.70;;;14.70;99.90;;;;;;5034242;28;20025;-86
2022/10/14 03:07:25;;;;;;;37.65;18.42;;;14.70;99.90;;;;;;5038043;28;20324;-88
2022/10/14 03:09:50;;;;;;;30.88;18.83;;;14.80;99.90;;;;;;5031676;28;20029;-84
2022/10/14 03:12:16;;;;;;;25.85;16.88;;;14.80;99.90;;;;;;5037215;28;20046;-88
2022/10/14 03:14:42;;;;;;;34.60;20.38;;;14.80;99.90;;;;;;5029319;28;20025;-83
2022/10/14 03:17:07;;;;;;;34.45;18.85;;;14.80;99.90;;;;;;5028323;28;20117;-87
2022/10/14 03:19:33;;;;;;;31.58;20.90;;;14.80;99.90;;;;;;5032957;28;20124;-85
2022/10/14 03:22:01;;;;;;;36.88;21.17;;;14.80;99.90;;;;;;5029870;28;20033;-80
2022/10/14 03:24:27;;;;;;;39.88;21.23;;;14.80;99.90;;;;;;5021828;28;20331;-86
2022/10/14 03:26:54;;;;;;;38.97;21.23;;;14.80;99.90;;;;;;5037437;28;20017;-87
2022/10/14 03:29:20;;;;;;;37.63;21.08;;;14.80;99.90;;;;;;5028735;28;20064;-87
2022/10/14 03:31:48;;;;;;;42.90;22.48;;;14.80;99.90;;;;;;5033016;28;20443;-87
2022/10/14 03:34:14;;;;;;;44.72;22.42;;;14.90;99.90;;;;;;5034398;28;20151;-79
2022/10/14 03:36:41;;;;;;;37.40;21.75;;;14.90;99.90;;;;;;5028968;28;20036;-86
2022/10/14 03:39:09;;;;;;;38.25;22.08;;;14.90;99.90;;;;;;5036776;28;20433;-87
2022/10/14 03:41:35;;;;;;;41.08;21.45;;;15.00;99.90;;;;;;5036490;28;20187;-85
2022/10/14 03:44:02;;;;;;;41.85;22.30;;;15.00;99.90;;;;;;5033294;28;20120;-86
2022/10/14 03:46:28;;;;;;;39.38;21.67;;;15.00;99.90;;;;;;5039943;28;20028;-86
2022/10/14 03:48:54;;;;;;;37.55;22.52;;;15.00;99.90;;;;;;5035512;28;20025;-85
2022/10/14 03:51:19;;;;;;;49.17;23.35;;;15.10;99.90;;;;;;5034341;28;20179;-83
2022/10/14 03:53:45;;;;;;;39.15;21.73;;;15.10;99.90;;;;;;5032807;28;20041;-87
2022/10/14 03:56:11;;;;;;;47.80;21.25;;;15.10;99.90;;;;;;5032659;28;20088;-86
2022/10/14 03:58:36;;;;;;;37.22;21.63;;;15.10;99.90;;;;;;5023823;28;20037;-89
2022/10/14 04:01:02;;;;;;;40.45;22.85;;;15.10;99.90;;;;;;5038554;28;20025;-88
2022/10/14 04:03:30;;;;;;;42.30;22.00;;;15.10;99.90;;;;;;5036367;28;20044;-87
2022/10/14 04:05:58;;;;;;;34.17;22.48;;;15.10;99.90;;;;;;5037452;28;20029;-89
2022/10/14 04:08:24;;;;;;;41.20;20.63;;;15.00;99.90;;;;;;5029898;28;20494;-89
2022/10/14 04:10:54;;;;;;;38.13;21.40;;;15.00;99.90;;;;;;5030820;28;20087;-85
2022/10/14 04:13:20;;;;;;;36.50;21.70;;;15.00;99.90;;;;;;5031482;28;20104;-85
2022/10/14 04:15:49;;;;;;;42.80;22.13;;;15.00;99.90;;;;;;5036166;28;20088;-89
2022/10/14 04:18:15;;;;;;;37.38;21.38;;;15.00;99.90;;;;;;5037730;28;20443;-88
2022/10/14 04:20:41;;;;;;;45.38;21.90;;;15.00;99.90;;;;;;5034858;28;20041;-88
2022/10/14 04:23:06;;;;;;;39.55;21.33;;;15.00;99.90;;;;;;5039207;28;20166;-87
2022/10/14 04:25:32;;;;;;;40.85;22.42;;;15.00;99.90;;;;;;5032967;28;20041;-90
2022/10/14 04:27:58;;;;;;;37.22;21.92;;;14.90;99.90;;;;;;5034421;28;20022;-89
2022/10/14 04:30:24;;;;;;;49.83;22.52;;;14.90;99.90;;;;;;5050197;28;20025;-85
2022/10/14 04:32:49;;;;;;;42.67;22.38;;;14.90;99.90;;;;;;5035490;28;20046;-80
2022/10/14 04:35:15;;;;;;;38.75;20.75;;;14.80;99.90;;;;;;5034468;28;20026;-87
2022/10/14 04:37:41;;;;;;;41.42;22.90;;;14.80;99.90;;;;;;5038847;28;20052;-86
2022/10/14 04:40:09;;;;;;;38.47;22.58;;;14.80;99.90;;;;;;5041124;28;20037;-88
2022/10/14 04:42:34;;;;;;;45.83;22.98;;;14.70;99.90;;;;;;5041026;28;20029;-88
2022/10/14 04:45:02;;;;;;;43.53;23.13;;;14.70;99.90;;;;;;5040018;28;20102;-88
2022/10/14 04:47:28;;;;;;;43.95;23.17;;;14.70;99.90;;;;;;5036939;28;20158;-89
2022/10/14 04:49:54;;;;;;;42.15;22.50;;;14.70;99.90;;;;;;5040063;28;20072;-82
2022/10/14 04:52:19;;;;;;;42.28;22.85;;;14.70;99.90;;;;;;5042859;28;20026;-84
2022/10/14 04:54:45;;;;;;;47.03;24.10;;;14.70;99.90;;;;;;5046984;28;20120;-85
2022/10/14 04:57:13;;;;;;;48.78;23.38;;;14.80;99.90;;;;;;5047195;28;20120;-84
2022/10/14 04:59:41;;;;;;;48.45;22.77;;;14.80;99.90;;;;;;5053898;28;20043;-87
2022/10/14 05:02:07;;;;;;;47.72;23.15;;;14.80;99.90;;;;;;5043182;28;20026;-85
2022/10/14 05:04:34;;;;;;;44.40;23.20;;;14.90;99.90;;;;;;5049612;28;20045;-88
2022/10/14 05:07:00;;;;;;;47.08;22.45;;;14.90;99.90;;;;;;5046880;28;20052;-86
2022/10/14 05:09:26;;;;;;;46.72;23.17;;;14.90;99.90;;;;;;5041602;28;20029;-89
2022/10/14 05:11:51;;;;;;;47.35;23.63;;;14.90;99.90;;;;;;5044464;28;20032;-86
2022/10/14 05:14:22;;;;;;;44.78;23.60;;;14.80;99.90;;;;;;5050117;28;20047;-87
2022/10/14 05:16:50;;;;;;;44.85;22.58;;;14.90;99.90;;;;;;5031297;28;20040;-85
2022/10/14 05:19:16;;;;;;;50.13;22.98;;;14.90;99.90;;;;;;5035226;28;20457;-85
2022/10/14 05:21:44;;;;;;;38.90;22.75;;;14.90;99.90;;;;;;5032496;28;20094;-83
2022/10/14 05:24:09;;;;;;;36.60;21.42;;;14.90;99.90;;;;;;5034477;28;20057;-84
2022/10/14 05:26:37;;;;;;;41.40;22.70;;;14.90;99.90;;;;;;5032376;28;20079;-85
2022/10/14 05:29:03;;;;;;;45.13;22.25;;;14.90;99.90;;;;;;5036698;28;20113;-85
2022/10/14 05:31:31;;;;;;;47.83;23.13;;;14.90;99.90;;;;;;5032163;28;20108;-83
2022/10/14 05:33:57;;;;;;;40.65;21.80;;;14.90;99.90;;;;;;5032416;28;20490;-84
2022/10/14 05:36:25;;;;;;;38.33;22.10;;;14.90;99.90;;;;;;5024093;28;20041;-86
2022/10/14 05:38:54;;;;;;;37.92;22.23;;;14.80;99.90;;;;;;5034099;28;20048;-83
2022/10/14 05:41:20;;;;;;;42.03;22.77;;;14.80;99.90;;;;;;5033384;28;20029;-86
2022/10/14 05:43:45;;;;;;;39.90;22.27;;;14.80;99.90;;;;;;5035755;28;20457;-86
2022/10/14 05:46:11;;;;;;;39.60;20.75;;;14.90;99.90;;;;;;5034950;28;20029;-86
2022/10/14 05:48:38;;;;;;;36.85;21.45;;;14.90;99.90;;;;;;5027900;28;20036;-87
2022/10/14 05:51:06;;;;;;;39.78;20.42;;;14.80;99.90;;;;;;5036079;28;20025;-86
2022/10/14 05:53:33;;;;;;;35.53;20.08;;;14.90;99.90;;;;;;5030978;28;20029;-84
2022/10/14 05:56:09;;;;;;;36.22;20.17;;;14.90;99.90;;;;;;5030797;28;20446;-88
2022/10/14 05:58:35;;;;;;;32.28;19.58;;;14.90;99.90;;;;;;5025118;28;20018;-85
2022/10/14 06:01:05;;;;;;;33.67;19.80;;;14.90;99.90;;;;;;5037808;28;20032;-87
2022/10/14 06:03:32;;;;;;;35.20;19.67;;;14.90;99.90;;;;;;5026841;28;20038;-86
2022/10/14 06:05:58;;;;;;;30.23;19.15;;;15.00;99.90;;;;;;5034384;28;20025;-86
2022/10/14 06:08:24;;;;;;;34.42;19.13;;;14.90;99.90;;;;;;5031879;28;20346;-86
2022/10/14 06:10:51;;;;;;;30.52;19.23;;;15.00;99.90;;;;;;5039446;28;20025;-83
2022/10/14 06:13:20;;;;;;;33.17;19.65;;;15.00;99.90;;;;;;5033491;28;20018;-86
2022/10/14 06:15:50;;;;;;;37.28;20.15;;;15.00;99.90;;;;;;5037173;28;20159;-88
2022/10/14 06:18:19;;;;;;;32.95;19.77;;;15.00;99.90;;;;;;5035028;28;20025;-87
2022/10/14 06:20:51;;;;;;;27.50;18.65;;;15.10;99.90;;;;;;5030444;28;20026;-88
2022/10/14 06:23:19;;;;;;;26.55;17.80;;;15.10;99.90;;;;;;5030399;28;20020;-88
2022/10/14 06:25:47;;;;;;;32.33;18.23;;;15.10;99.90;;;;;;5030462;28;20034;-85
2022/10/14 06:28:13;;;;;;;31.13;18.50;;;15.00;99.90;;;;;;5023173;28;20098;-89
2022/10/14 06:30:38;;;;;;;31.73;18.90;;;15.10;99.90;;;;;;5025377;28;20490;-87
2022/10/14 06:33:04;;;;;;;28.42;18.70;;;15.10;99.90;;;;;;5032398;28;20041;-87
2022/10/14 06:35:32;;;;;;;29.23;17.20;;;15.10;99.90;;;;;;5034527;28;20033;-87
2022/10/14 06:37:57;;;;;;;27.05;17.48;;;15.10;99.90;;;;;;5031244;28;20017;-81
2022/10/14 06:40:23;;;;;;;32.97;18.25;;;15.20;99.90;;;;;;5030571;28;20041;-85
2022/10/14 06:42:49;;;;;;;25.75;17.20;;;15.20;99.90;;;;;;5032031;28;20110;-85
2022/10/14 06:45:15;;;;;;;26.17;16.80;;;15.20;99.90;;;;;;5033237;28;20749;-84
2022/10/14 06:47:40;;;;;;;25.58;15.55;;;15.20;99.90;;;;;;5030209;28;20044;-82
2022/10/14 06:50:07;;;;;;;22.73;15.27;;;15.20;99.90;;;;;;5027919;28;20036;-82
2022/10/14 06:52:32;;;;;;;25.80;15.75;;;15.20;99.90;;;;;;5029506;28;20097;-89
2022/10/14 06:54:58;;;;;;;31.00;16.33;;;15.20;99.90;;;;;;5032713;28;20077;-89
2022/10/14 06:57:26;;;;;;;29.73;17.25;;;15.30;99.90;;;;;;5035069;28;20365;-84
2022/10/14 06:59:51;;;;;;;725.70;223.95;;;15.30;99.90;;;;;;5031163;28;20374;-78
2022/10/14 07:02:17;;;;;;;161.52;70.13;;;15.30;99.90;;;;;;5028821;28;20040;-79
2022/10/14 07:04:42;;;;;;;68.18;28.55;;;15.30;99.90;;;;;;5030098;28;20100;-84
2022/10/14 07:07:08;;;;;;;32.95;17.38;;;15.30;99.90;;;;;;5035991;28;20043;-87
2022/10/14 07:09:34;;;;;;;25.90;16.40;;;15.30;99.90;;;;;;5037137;28;20040;-88
2022/10/14 07:12:00;;;;;;;26.65;17.45;;;15.30;99.90;;;;;;5032420;28;20079;-85
2022/10/14 07:14:29;;;;;;;30.75;16.63;;;15.30;99.90;;;;;;5033358;28;20037;-86
2022/10/14 07:16:54;;;;;;;35.35;17.13;;;15.30;99.90;;;;;;5038917;28;20033;-86
2022/10/14 07:19:20;;;;;;;24.85;15.35;;;15.30;99.90;;;;;;5034885;28;20127;-87
2022/10/14 07:21:45;;;;;;;26.25;16.15;;;15.40;99.90;;;;;;5034921;28;20485;-82
2022/10/14 07:24:11;;;;;;;31.67;15.75;;;15.40;99.90;;;;;;5030029;28;20087;-80
2022/10/14 07:26:37;;;;;;;27.58;16.42;;;15.40;99.90;;;;;;5032127;28;20151;-78
2022/10/14 07:29:04;;;;;;;27.25;16.05;;;15.40;99.90;;;;;;5034787;28;20454;-79
2022/10/14 07:31:30;;;;;;;27.42;16.75;;;15.40;99.90;;;;;;5034958;28;20140;-80
2022/10/14 07:33:56;;;;;;;27.25;16.48;;;15.40;99.90;;;;;;5031950;28;20453;-80
2022/10/14 07:36:21;;;;;;;32.45;17.35;;;15.40;99.90;;;;;;5033761;28;20506;-80
2022/10/14 07:38:47;;;;;;;27.33;16.60;;;15.40;99.90;;;;;;5033354;28;20048;-77
2022/10/14 07:41:17;;;;;;;28.75;17.05;;;15.40;99.90;;;;;;5032294;28;20029;-73
2022/10/14 07:44:04;;;;;;;454.23;220.40;;;15.50;99.90;;;;;;5032621;28;20018;-80
2022/10/14 07:46:34;;;;;;;26.40;15.82;;;15.50;99.90;;;;;;5029671;28;20120;-79
2022/10/14 07:49:02;;;;;;;23.50;15.13;;;15.50;99.90;;;;;;5037402;28;20032;-78
2022/10/14 07:51:37;;;;;;;26.33;14.90;;;15.50;99.90;;;;;;5039967;28;20071;-78
2022/10/14 07:54:05;;;;;;;30.00;14.43;;;15.60;99.90;;;;;;5036706;28;20471;-79
2022/10/14 07:56:30;;;;;;;24.80;14.73;;;15.60;99.90;;;;;;5038639;28;20059;-79
2022/10/14 07:58:57;;;;;;;23.77;14.40;;;15.50;99.90;;;;;;5027802;28;20585;-78
2022/10/14 08:01:25;;;;;;;24.52;13.85;;;15.50;99.90;;;;;;5032671;28;20029;-76
2022/10/14 08:03:51;;;;;;;23.95;14.00;;;15.60;99.90;;;;;;5031610;28;20033;-79
2022/10/14 08:06:16;;;;;;;22.48;14.18;;;15.50;99.90;;;;;;5030413;28;20026;-77
2022/10/14 08:08:42;;;;;;;21.33;12.38;;;15.60;99.90;;;;;;5031493;28;20025;-78
2022/10/14 08:11:17;;;;;;;17.98;11.70;;;15.60;99.90;;;;;;5033413;28;20020;-80
2022/10/14 08:13:44;;;;;;;18.48;12.20;;;15.60;99.90;;;;;;5030551;28;20095;-80
2022/10/14 08:16:15;;;;;;;18.20;12.77;;;15.60;99.90;;;;;;5029678;28;20037;-77
2022/10/14 08:18:40;;;;;;;17.10;12.25;;;15.70;99.90;;;;;;5031508;28;20033;-79
2022/10/14 08:21:08;;;;;;;20.10;13.05;;;15.70;99.90;;;;;;5036015;28;20091;-77
2022/10/14 08:23:39;;;;;;;23.35;13.55;;;15.70;99.90;;;;;;5034259;28;20068;-76
2022/10/14 08:26:19;;;;;;;21.85;14.15;;;15.80;99.90;;;;;;5030892;28;20033;-78
2022/10/14 08:28:46;;;;;;;26.10;16.83;;;15.80;99.90;;;;;;5049900;28;20030;-77
2022/10/14 08:31:11;;;;;;;26.17;17.10;;;15.90;99.90;;;;;;5028861;28;20489;-78
2022/10/14 08:33:37;;;;;;;32.60;19.67;;;16.00;99.90;;;;;;5035097;28;20029;-77
2022/10/14 08:36:02;;;;;;;27.23;18.80;;;16.00;99.90;;;;;;5035167;28;20018;-78
2022/10/14 08:38:28;;;;;;;29.10;17.42;;;16.00;99.90;;;;;;5034615;28;20029;-77
2022/10/14 08:41:17;;;;;;;27.35;16.55;;;16.00;99.90;;;;;;5033967;28;20033;-78
2022/10/14 08:44:00;;;;;;;19.55;15.10;;;16.00;99.90;;;;;;5031683;28;20095;-78
2022/10/14 08:46:31;;;;;;;;;;;16.00;99.90;;;;;;5031422;28;20116;-78
2022/10/14 08:49:20;;;;;;;20.75;13.00;;;16.00;99.90;;;;;;5047635;28;20607;-76
2022/10/14 08:51:52;;;;;;;15.27;12.10;;;16.00;99.90;;;;;;5027716;28;20029;-78
2022/10/14 08:54:31;;;;;;;15.90;12.27;;;16.00;99.90;;;;;;5043769;28;20136;-77
2022/10/14 08:56:57;;;;;;;15.98;11.57;;;16.10;99.90;;;;;;5033738;28;20038;-77
2022/10/14 08:59:25;;;;;;;16.35;11.35;;;16.20;99.90;;;;;;5028893;28;20109;-78
2022/10/14 09:01:57;;;;;;;15.00;11.48;;;16.20;99.90;;;;;;5036235;28;20033;-76
2022/10/14 09:04:22;;;;;;;18.27;12.25;;;16.20;99.90;;;;;;5038360;28;20022;-78
2022/10/14 09:06:50;;;;;;;17.27;12.35;;;16.20;99.90;;;;;;5033849;28;20040;-78
2022/10/14 09:09:38;;;;;;;15.23;12.43;;;16.20;99.90;;;;;;5035482;28;20319;-77
2022/10/14 09:12:12;;;;;;;22.20;13.90;;;16.30;99.90;;;;;;5030429;28;20033;-78
2022/10/14 09:14:44;;;;;;;15.15;11.93;;;16.30;99.90;;;;;;5030293;28;20038;-79
2022/10/14 09:17:19;;;;;;;30.05;13.98;;;16.30;99.90;;;;;;5025506;28;20220;-78
2022/10/14 09:20:07;;;;;;;20.33;14.73;;;16.40;99.90;;;;;;5035928;28;20465;-78
2022/10/14 09:22:33;;;;;;;19.35;14.68;;;16.40;99.90;;;;;;5030661;28;20112;-79
2022/10/14 09:25:00;;;;;;;22.08;15.15;;;16.50;99.90;;;;;;5030478;28;20075;-78
2022/10/14 09:27:27;;;;;;;29.15;15.40;;;16.60;99.90;;;;;;5028452;28;20039;-78
2022/10/14 09:30:01;;;;;;;27.05;15.27;;;16.60;99.90;;;;;;5029170;28;20156;-78
2022/10/14 09:32:35;;;;;;;22.27;16.30;;;16.60;99.90;;;;;;5034968;28;20150;-78
2022/10/14 09:35:02;;;;;;;27.02;15.77;;;16.70;99.90;;;;;;5022037;28;20060;-79
2022/10/14 09:37:32;;;;;;;20.90;15.82;;;16.70;99.90;;;;;;5033827;28;20036;-78
2022/10/14 09:40:20;;;;;;;29.17;16.42;;;16.80;99.90;;;;;;5030804;28;20032;-78
2022/10/14 09:42:55;;;;;;;22.65;14.68;;;16.80;99.90;;;;;;5022410;28;20041;-77
2022/10/14 09:45:23;;;;;;;25.17;14.63;;;16.80;99.90;;;;;;5031286;28;20496;-77
2022/10/14 09:47:54;;;;;;;23.35;15.27;;;16.80;99.90;;;;;;5034767;28;20068;-79
2022/10/14 09:50:29;;;;;;;20.30;14.32;;;16.70;99.90;;;;;;5027176;28;20087;-76
2022/10/14 09:53:00;;;;;;;24.00;14.80;;;16.80;99.90;;;;;;5032852;28;20033;-78
2022/10/14 09:55:26;;;;;;;19.25;13.95;;;16.90;99.90;;;;;;5036983;28;20021;-77
2022/10/14 09:58:17;;;;;;;22.58;14.60;;;16.90;99.90;;;;;;5031550;28;20017;-74
2022/10/14 10:00:44;;;;;;;24.63;15.70;;;16.70;99.90;;;;;;5036926;28;20040;-78
2022/10/14 10:03:33;;;;;;;22.42;15.50;;;16.70;99.90;;;;;;5025806;28;20032;-76
2022/10/14 10:06:06;;;;;;;25.05;15.82;;;16.70;99.90;;;;;;5033757;28;20037;-77
2022/10/14 10:08:36;;;;;;;25.20;16.95;;;16.70;99.90;;;;;;5028960;28;20048;-77
2022/10/14 10:11:09;;;;;;;25.73;16.85;;;16.70;99.90;;;;;;5024822;28;20121;-78
2022/10/14 10:13:47;;;;;;;22.77;17.05;;;16.70;99.90;;;;;;5035351;28;20136;-77
2022/10/14 10:16:33;;;;;;;25.02;17.90;;;16.80;99.90;;;;;;5023529;28;20576;-76
2022/10/14 10:19:27;;;;;;;24.98;17.65;;;16.80;99.90;;;;;;5026391;28;20324;-78
2022/10/14 10:22:18;;;;;;;27.15;17.50;;;16.90;99.90;;;;;;5022166;28;20163;-75
2022/10/14 10:24:47;;;;;;;25.65;16.70;;;16.90;99.90;;;;;;5031705;28;20030;-78
2022/10/14 10:27:25;;;;;;;24.17;15.88;;;17.00;99.90;;;;;;5034843;28;20083;-75
2022/10/14 10:29:56;;;;;;;22.20;15.27;;;17.00;99.90;;;;;;5032408;28;20033;-77
2022/10/14 10:32:32;;;;;;;22.50;15.00;;;17.00;99.90;;;;;;5023150;28;20068;-76
2022/10/14 10:35:00;;;;;;;22.48;15.45;;;17.00;99.90;;;;;;5028422;28;20030;-76
2022/10/14 10:37:28;;;;;;;18.85;14.43;;;17.10;99.90;;;;;;5031537;28;20048;-77
2022/10/14 10:40:15;;;;;;;20.58;13.68;;;17.10;99.90;;;;;;5024975;28;20029;-77
2022/10/14 10:43:05;;;;;;;15.35;13.05;;;17.20;99.90;;;;;;5021857;28;20122;-76
2022/10/14 10:45:49;;;;;;;21.40;13.02;;;17.20;99.90;;;;;;5027603;28;20037;-74
2022/10/14 10:48:39;;;;;;;23.00;12.88;;;17.20;99.90;;;;;;5024296;28;20105;-78
2022/10/14 10:51:33;;;;;;;16.20;11.63;;;17.30;99.90;;;;;;5036649;28;20033;-76
2022/10/14 10:54:08;;;;;;;;;;;17.20;99.90;;;;;;5013231;28;20103;-77
2022/10/14 10:56:58;;;;;;;19.13;10.02;;;17.20;99.90;;;;;;5037331;28;19908;-77
2022/10/14 10:59:55;;;;;;;17.38;10.35;;;17.20;99.90;;;;;;5034291;28;20018;-77
2022/10/14 11:02:44;;;;;;;14.20;11.02;;;17.30;99.90;;;;;;5035893;28;20083;-76
2022/10/14 11:05:20;;;;;;;18.38;10.88;;;17.40;99.90;;;;;;5029690;28;20045;-76
2022/10/14 11:13:58;;;;;;;11.38;8.50;;;17.40;99.90;;;;;;5028789;28;20036;-78
2022/10/14 11:17:01;;;;;;;12.60;8.90;;;17.50;99.90;;;;;;5031549;28;20115;-77
2022/10/14 11:19:36;;;;;;;8.05;6.88;;;17.40;99.90;;;;;;5030728;28;20030;-76
2022/10/14 11:22:27;;;;;;;15.40;7.18;;;17.30;99.90;;;;;;5035406;28;20033;-78
2022/10/14 11:25:05;;;;;;;11.48;6.75;;;17.10;99.90;;;;;;5025801;28;20017;-78
2022/10/14 11:28:03;;;;;;;10.18;6.50;;;17.10;99.90;;;;;;5026703;28;20022;-78
2022/10/14 11:30:54;;;;;;;8.90;6.05;;;16.90;99.90;;;;;;5026794;28;20648;-79
2022/10/14 11:33:37;;;;;;;15.30;9.10;;;16.80;99.90;;;;;;5031118;28;20030;-77
2022/10/14 11:36:22;;;;;;;29.20;13.93;;;16.80;99.90;;;;;;5031999;28;20189;-72
2022/10/14 11:39:13;;;;;;;16.38;10.35;;;16.80;99.90;;;;;;5030451;28;20040;-73
2022/10/14 11:41:41;;;;;;;10.05;7.35;;;16.80;99.90;;;;;;5030832;28;20010;-77
2022/10/14 11:44:13;;;;;;;10.70;7.82;;;16.70;99.90;;;;;;5026229;28;20429;-77
2022/10/14 11:46:45;;;;;;;10.23;7.20;;;16.70;99.90;;;;;;5024436;28;20029;-76
2022/10/14 11:49:20;;;;;;;9.75;7.07;;;16.80;99.90;;;;;;5028915;28;20037;-78
2022/10/14 11:51:57;;;;;;;8.07;6.75;;;16.90;99.90;;;;;;5024770;28;20195;-77
2022/10/14 11:54:35;;;;;;;11.98;8.05;;;17.10;99.90;;;;;;5030190;28;20446;-73
2022/10/14 11:57:10;;;;;;;11.10;7.55;;;17.20;99.90;;;;;;5028049;28;20056;-76
2022/10/14 11:59:36;;;;;;;7.88;6.75;;;17.20;99.90;;;;;;5035398;28;20025;-77
2022/10/14 12:02:14;;;;;;;9.98;7.25;;;17.20;99.90;;;;;;5044182;28;20043;-77
2022/10/14 12:04:44;;;;;;;7.95;7.10;;;17.00;99.90;;;;;;5035748;28;20025;-77
2022/10/14 12:07:17;;;;;;;9.82;7.70;;;17.10;99.90;;;;;;5033913;28;20026;-77
2022/10/14 12:09:56;;;;;;;9.95;7.38;;;17.20;99.90;;;;;;5027635;28;20017;-78
2022/10/14 12:12:25;;;;;;;8.93;7.50;;;17.10;99.90;;;;;;5029554;28;20103;-77
2022/10/14 12:14:56;;;;;;;9.52;7.68;;;17.30;99.90;;;;;;5032047;28;20064;-78
2022/10/14 12:17:56;;;;;;;12.50;7.95;;;17.20;99.90;;;;;;5020136;28;20415;-77
2022/10/14 12:20:27;;;;;;;9.65;7.93;;;17.20;99.90;;;;;;5030683;28;20147;-76
2022/10/14 12:22:56;;;;;;;9.80;8.60;;;17.40;99.90;;;;;;5031982;28;20043;-76
2022/10/14 12:25:29;;;;;;;13.93;9.77;;;17.30;99.90;;;;;;5031515;28;20040;-73
2022/10/14 12:27:55;;;;;;;11.35;8.82;;;17.30;99.90;;;;;;5034171;28;20029;-76
2022/10/14 12:30:50;;;;;;;17.13;9.63;;;17.30;99.90;;;;;;5033552;28;20450;-76
2022/10/14 12:33:16;;;;;;;12.25;9.25;;;17.20;99.90;;;;;;5038315;28;20090;-78
2022/10/14 12:35:44;;;;;;;11.40;9.55;;;17.20;99.90;;;;;;5036226;28;20029;-77
2022/10/14 12:38:11;;;;;;;13.98;9.27;;;17.10;99.90;;;;;;5030119;28;20112;-76
2022/10/14 12:40:41;;;;;;;15.23;9.75;;;16.90;99.90;;;;;;5030245;28;20029;-78
2022/10/14 12:43:28;;;;;;;12.85;10.30;;;16.90;99.90;;;;;;5025239;28;20022;-78
2022/10/14 12:46:00;;;;;;;14.60;10.07;;;16.90;99.90;;;;;;5026547;28;20066;-77
2022/10/14 12:48:32;;;;;;;15.52;10.77;;;16.90;99.90;;;;;;5033426;28;20034;-77
2022/10/14 12:51:11;;;;;;;12.75;9.75;;;16.80;99.90;;;;;;5038299;28;20036;-77
2022/10/14 12:53:42;;;;;;;11.20;8.98;;;16.90;99.90;;;;;;5024870;28;20549;-77